Terminal Aerodrome Forecast
Issued by NWS Wilmington, OH

Current Version | Previous Version | Graphics & Text | Print | Product List | Glossary On
Versions: 1 2 3 4 5 6 7 8 9 10 11 12 13 14 15 16 17 18 19 20
000
FTUS41 KILN 160500
TAFDAY
TAF
KDAY 160539Z 1606/1706 10010KT P6SM VCSH OVC110
     FM161200 12010KT P6SM VCSH OVC015
     FM161500 16010KT P6SM VCSH OVC020
     FM162200 19006KT 5SM -SHRA OVC020
     FM170400 23005KT 5SM BR OVC020=

USA.gov is the U.S. government's official web portal to all federal, state and local government web resources and services.